Time;durP1;ratioP1;P1;durP2;ratioP2;P2;SDS_P1;SDS_P2;PMS_P1;PMS_P2;Temp;Humidity;BMP_temperature;BMP_pressure;BME280_temperature;BME280_humidity;BME280_pressure;Samples;Min_cycle;Max_cycle;Signal;HPM_P1;HPM_P2
2023/06/06 00:00:20;;;;;;;3.77;2.20;;;;;;;20.64;100.00;101669.28;2089000;28;20227;-58
2023/06/06 00:01:21;;;;;;;3.57;2.10;;;;;;;20.63;100.00;101668.50;2088892;28;20263;-59
2023/06/06 00:02:21;;;;;;;4.17;2.20;;;;;;;20.62;100.00;101669.00;2088265;28;20419;-58
2023/06/06 00:03:22;;;;;;;4.77;2.30;;;;;;;20.57;100.00;101661.97;2089417;28;20180;-58
2023/06/06 00:04:22;;;;;;;5.73;2.33;;;;;;;20.61;100.00;101673.84;2080673;28;20229;-58
2023/06/06 00:05:25;;;;;;;6.27;2.07;;;;;;;20.61;100.00;101673.03;2080609;28;20600;-58
2023/06/06 00:06:27;;;;;;;4.80;2.37;;;;;;;20.59;100.00;101667.91;2086594;28;20192;-58
2023/06/06 00:07:28;;;;;;;6.30;2.47;;;;;;;20.57;100.00;101661.19;2083866;28;20774;-59
2023/06/06 00:08:29;;;;;;;5.13;2.23;;;;;;;20.54;100.00;101665.75;2080352;28;20454;-58
2023/06/06 00:09:30;;;;;;;3.30;2.20;;;;;;;20.53;100.00;101669.78;2083157;28;20705;-58
2023/06/06 00:10:31;;;;;;;5.33;2.33;;;;;;;20.43;100.00;101647.78;2088394;28;20206;-58
2023/06/06 00:11:32;;;;;;;4.87;2.10;;;;;;;20.43;100.00;101659.06;2088772;28;20419;-58
2023/06/06 00:12:32;;;;;;;5.33;2.20;;;;;;;20.07;100.00;101606.47;2089269;28;20172;-58
2023/06/06 00:13:34;;;;;;;4.80;2.10;;;;;;;20.35;100.00;101661.44;2088871;28;20199;-59
2023/06/06 00:14:35;;;;;;;4.40;2.30;;;;;;;20.34;100.00;101665.50;2081900;28;20200;-59
2023/06/06 00:15:36;;;;;;;6.13;2.17;;;;;;;20.33;100.00;101668.78;2085935;28;20521;-58
2023/06/06 00:16:37;;;;;;;5.33;1.97;;;;;;;19.22;100.00;101501.22;2088464;28;20277;-58
2023/06/06 00:17:38;;;;;;;8.00;2.23;;;;;;;20.28;100.00;101667.41;2085587;28;20255;-59
2023/06/06 00:18:39;;;;;;;5.00;2.60;;;;;;;20.22;100.00;101665.72;2081684;28;20528;-58
2023/06/06 00:19:42;;;;;;;4.73;2.20;;;;;;;20.13;100.00;101660.88;2089045;28;20386;-58
2023/06/06 00:20:43;;;;;;;3.40;2.00;;;;;;;20.10;100.00;101664.63;2088548;28;20898;-58
2023/06/06 00:21:43;;;;;;;3.13;2.00;;;;;;;20.18;100.00;101665.09;2089461;28;20414;-58
2023/06/06 00:22:43;;;;;;;6.40;2.43;;;;;;;20.13;100.00;101660.88;2081346;28;20566;-59
2023/06/06 00:23:45;;;;;;;3.67;1.90;;;;;;;20.12;100.00;101664.94;2086944;28;20199;-59
2023/06/06 00:24:45;;;;;;;3.37;2.30;;;;;;;20.13;100.00;101660.88;2088315;28;20202;-58
2023/06/06 00:25:47;;;;;;;4.70;2.20;;;;;;;19.95;100.00;101641.19;2088730;28;20445;-58
2023/06/06 00:26:47;;;;;;;6.53;2.33;;;;;;;20.10;100.00;101663.84;2088506;28;20228;-59
2023/06/06 00:27:48;;;;;;;4.47;2.00;;;;;;;20.06;100.00;101663.97;2088913;28;20423;-58
2023/06/06 00:28:48;;;;;;;5.40;2.20;;;;;;;19.92;100.00;101642.16;2087964;28;20180;-58
2023/06/06 00:29:49;;;;;;;3.30;2.20;;;;;;;20.00;100.00;101665.13;2089310;28;20752;-59
2023/06/06 00:30:49;;;;;;;3.90;2.27;;;;;;;19.98;100.00;101665.59;2087686;28;20817;-58
2023/06/06 00:31:50;;;;;;;4.57;2.23;;;;;;;19.84;100.00;101649.34;2082040;28;20731;-59
2023/06/06 00:32:50;;;;;;;5.17;2.07;;;;;;;19.86;100.00;101663.72;2086068;28;20333;-58
2023/06/06 00:33:51;;;;;;;3.53;2.00;;;;;;;19.91;100.00;101667.94;2088132;28;20640;-59
2023/06/06 00:34:51;;;;;;;5.87;2.10;;;;;;;19.89;100.00;101667.59;2085079;28;20271;-58
2023/06/06 00:35:52;;;;;;;3.73;2.17;;;;;;;19.86;100.00;101663.72;2081901;28;20173;-58
2023/06/06 00:36:52;;;;;;;4.70;2.10;;;;;;;19.89;100.00;101664.78;2088787;28;20768;-59
2023/06/06 00:37:52;;;;;;;7.57;2.23;;;;;;;19.87;100.00;101667.31;2088812;28;20539;-58
2023/06/06 00:38:53;;;;;;;4.23;2.27;;;;;;;19.85;100.00;101669.81;2087905;28;20583;-58
2023/06/06 00:39:53;;;;;;;3.47;2.33;;;;;;;19.74;100.00;101655.44;2088833;28;20192;-59
2023/06/06 00:40:54;;;;;;;4.07;2.40;;;;;;;19.81;100.00;101666.38;2088392;28;20228;-59
2023/06/06 00:41:54;;;;;;;3.57;2.30;;;;;;;19.85;100.00;101667.78;2087934;28;20582;-58
2023/06/06 00:42:55;;;;;;;5.17;2.30;;;;;;;19.83;100.00;101661.06;2087645;28;20618;-58
2023/06/06 00:43:55;;;;;;;3.70;2.20;;;;;;;19.78;100.00;101664.50;2088764;28;20199;-58
2023/06/06 00:44:55;;;;;;;4.97;2.30;;;;;;;19.75;100.00;101668.28;2088151;28;20168;-58
2023/06/06 00:45:56;;;;;;;4.17;2.00;;;;;;;19.78;100.00;101665.31;2089103;28;20180;-58
2023/06/06 00:46:56;;;;;;;4.00;2.30;;;;;;;19.82;100.00;101660.31;2081080;28;20195;-58
2023/06/06 00:47:58;;;;;;;4.30;2.10;;;;;;;19.88;100.00;101657.63;2086806;28;20322;-57
2023/06/06 00:48:58;;;;;;;3.00;2.03;;;;;;;19.89;100.00;101659.97;2083218;28;20208;-58
2023/06/06 00:49:59;;;;;;;5.20;2.03;;;;;;;19.90;100.00;101657.94;2084593;28;20453;-58
2023/06/06 00:50:59;;;;;;;5.70;2.03;;;;;;;18.96;100.00;101522.44;2088568;28;20196;-59
2023/06/06 00:52:01;;;;;;;4.13;2.40;;;;;;;19.87;100.00;101650.44;2088592;28;20376;-58
2023/06/06 00:53:03;;;;;;;3.30;2.03;;;;;;;19.79;100.00;101646.38;2088275;28;20181;-59
2023/06/06 00:54:06;;;;;;;4.80;2.20;;;;;;;19.83;100.00;101647.00;2088795;28;20418;-58
2023/06/06 00:55:09;;;;;;;5.20;2.20;;;;;;;19.86;100.00;101654.50;2088551;28;20462;-58
2023/06/06 00:56:13;;;;;;;4.60;2.17;;;;;;;19.79;100.00;101652.00;2088410;28;20450;-58
2023/06/06 00:57:16;;;;;;;4.43;2.20;;;;;;;19.80;100.00;101653.59;2088643;28;20736;-58
2023/06/06 00:58:17;;;;;;;4.50;2.10;;;;;;;19.81;100.00;101650.28;2081682;28;20937;-59
2023/06/06 00:59:18;;;;;;;3.47;2.30;;;;;;;19.81;100.00;101650.28;2084862;28;20849;-58
2023/06/06 01:00:19;;;;;;;6.30;2.40;;;;;;;19.87;100.00;101648.41;2088271;28;20259;-58
2023/06/06 01:01:20;;;;;;;5.13;2.57;;;;;;;19.89;100.00;101648.72;2085210;28;20442;-58
2023/06/06 01:02:24;;;;;;;4.60;2.10;;;;;;;19.76;100.00;101645.28;2080365;28;20209;-58
2023/06/06 01:03:24;;;;;;;4.23;2.07;;;;;;;19.82;100.00;101653.88;2081296;28;20197;-59
2023/06/06 01:04:26;;;;;;;4.20;2.03;;;;;;;19.87;100.00;101650.44;2088680;28;20797;-58
2023/06/06 01:05:26;;;;;;;5.33;2.13;;;;;;;19.87;100.00;101650.44;2080366;28;20280;-58
2023/06/06 01:06:33;;;;;;;3.73;2.17;;;;;;;19.74;100.00;101638.56;2087424;28;20446;-57
2023/06/06 01:07:35;;;;;;;10.27;2.40;;;;;;;19.82;100.00;101649.06;2088770;28;20192;-58
2023/06/06 01:08:35;;;;;;;6.03;2.30;;;;;;;19.83;100.00;101655.44;2087647;28;20948;-58
2023/06/06 01:09:36;;;;;;;4.80;2.30;;;;;;;19.83;100.00;101647.00;2088233;28;20490;-59
2023/06/06 01:10:37;;;;;;;5.93;2.30;;;;;;;19.81;100.00;101653.09;2087320;28;20279;-59
2023/06/06 01:11:37;;;;;;;4.20;2.10;;;;;;;19.77;100.00;101651.69;2085626;28;20215;-57
2023/06/06 01:12:43;;;;;;;3.37;2.20;;;;;;;19.72;100.00;101641.09;2081393;28;20191;-58
2023/06/06 01:14:00;;;;;;;4.33;2.13;;;;;;;19.86;100.00;101654.50;2088414;28;20544;-59
2023/06/06 01:15:16;;;;;;;5.57;1.97;;;;;;;19.81;100.00;101672.78;2088132;28;20406;-58
2023/06/06 01:16:20;;;;;;;6.97;2.10;;;;;;;19.89;100.00;101659.97;2088442;28;20830;-59
2023/06/06 01:17:25;;;;;;;4.43;2.10;;;;;;;19.91;100.00;101660.25;2088496;28;20430;-58
2023/06/06 01:18:27;;;;;;;4.40;2.10;;;;;;;19.92;100.00;101669.50;2087459;28;20415;-58
2023/06/06 01:19:29;;;;;;;3.63;2.17;;;;;;;19.47;100.00;101582.38;2087620;28;20436;-57
2023/06/06 01:20:31;;;;;;;6.23;2.03;;;;;;;19.27;100.00;101553.97;2080388;28;20414;-58
2023/06/06 01:21:41;;;;;;;4.77;1.90;;;;;;;19.95;100.00;101665.75;2080795;28;20908;-59
2023/06/06 01:22:46;;;;;;;5.27;2.10;;;;;;;19.94;100.00;101656.50;2080522;28;20426;-58
2023/06/06 01:23:46;;;;;;;4.67;2.70;;;;;;;19.84;100.00;101648.56;2080520;28;20470;-58
2023/06/06 01:24:51;;;;;;;5.43;2.20;;;;;;;19.86;100.00;101651.69;2086152;28;20473;-58
2023/06/06 01:25:51;;;;;;;4.47;2.13;;;;;;;19.89;100.00;101662.78;2088458;28;20641;-58
2023/06/06 01:26:51;;;;;;;3.83;2.10;;;;;;;19.85;100.00;101656.53;2083506;28;20458;-59
2023/06/06 01:27:54;;;;;;;5.97;2.73;;;;;;;19.33;100.00;101585.81;2083782;28;20278;-58
2023/06/06 01:28:55;;;;;;;4.53;1.90;;;;;;;19.77;100.00;101657.31;2087909;28;20230;-58
2023/06/06 01:29:55;;;;;;;5.93;1.90;;;;;;;19.81;100.00;101661.53;2086992;28;20457;-59
2023/06/06 01:30:56;;;;;;;2.57;1.80;;;;;;;19.85;100.00;101662.16;2079942;28;20208;-59
2023/06/06 01:32:05;;;;;;;4.50;2.23;;;;;;;19.82;100.00;101656.69;2088220;28;20267;-58
2023/06/06 01:33:30;;;;;;;3.97;2.10;;;;;;;19.80;100.00;101653.59;2080609;28;20173;-59
2023/06/06 01:34:38;;;;;;;7.60;1.83;;;;;;;19.79;100.00;101655.59;2081186;28;20411;-58
2023/06/06 01:35:52;;;;;;;3.73;2.00;;;;;;;19.77;100.00;101648.88;2087896;28;20414;-58
2023/06/06 01:37:06;;;;;;;3.80;1.97;;;;;;;19.84;100.00;101649.34;2088174;28;20902;-59
2023/06/06 01:38:19;;;;;;;6.40;1.90;;;;;;;19.83;100.00;101652.63;2085082;28;20856;-58
2023/06/06 01:39:22;;;;;;;3.23;1.83;;;;;;;19.77;100.00;101655.31;2083398;28;21035;-58
2023/06/06 01:40:26;;;;;;;4.57;2.10;;;;;;;19.30;100.00;101592.41;2088033;28;20476;-59
2023/06/06 01:41:29;;;;;;;3.17;1.77;;;;;;;19.69;100.00;101650.44;2088311;28;20561;-58
2023/06/06 01:42:31;;;;;;;3.30;1.97;;;;;;;19.65;100.00;101647.03;2088064;28;20427;-58
2023/06/06 01:43:33;;;;;;;2.90;1.73;;;;;;;19.80;100.00;101659.97;2088823;28;20415;-58
2023/06/06 01:44:35;;;;;;;5.47;2.40;;;;;;;19.81;100.00;101661.53;2080507;28;20951;-58
2023/06/06 01:45:38;;;;;;;5.13;2.20;;;;;;;19.86;100.00;101665.75;2087332;28;20978;-59
2023/06/06 01:46:40;;;;;;;5.70;2.50;;;;;;;19.86;100.00;101660.91;2088278;28;20442;-58
2023/06/06 01:47:41;;;;;;;6.93;2.17;;;;;;;19.92;100.00;101667.47;2088160;28;20454;-58
2023/06/06 01:48:43;;;;;;;4.43;1.90;;;;;;;19.95;100.00;101665.75;2087533;28;20442;-59
2023/06/06 01:49:45;;;;;;;2.77;1.67;;;;;;;19.19;100.00;101549.91;2088052;28;20887;-58
2023/06/06 01:50:46;;;;;;;6.57;1.87;;;;;;;19.14;100.00;101528.81;2088423;28;20458;-58
2023/06/06 01:51:47;;;;;;;5.07;2.00;;;;;;;19.46;100.00;101583.63;2088553;28;20511;-58
2023/06/06 01:52:48;;;;;;;3.70;1.70;;;;;;;20.02;100.00;101671.03;2087985;28;20426;-58
2023/06/06 01:53:48;;;;;;;4.10;1.63;;;;;;;20.03;100.00;101673.38;2080543;28;20430;-58
2023/06/06 01:54:48;;;;;;;3.80;1.83;;;;;;;19.70;100.00;101616.22;2087189;28;20196;-58
2023/06/06 01:55:51;;;;;;;4.27;2.07;;;;;;;20.09;100.00;101670.72;2088300;28;20188;-58
2023/06/06 01:56:51;;;;;;;4.43;2.00;;;;;;;20.10;100.00;101672.28;2083015;28;20576;-58
2023/06/06 01:57:52;;;;;;;7.83;1.93;;;;;;;20.10;100.00;101672.28;2084217;28;20461;-59
2023/06/06 01:58:52;;;;;;;7.27;2.00;;;;;;;20.10;100.00;101673.06;2087706;28;20219;-59
2023/06/06 01:59:54;;;;;;;9.43;1.90;;;;;;;19.63;100.00;101599.69;2088388;28;20195;-58
2023/06/06 02:00:55;;;;;;;4.57;2.00;;;;;;;20.08;100.00;101674.81;2087771;28;20267;-59
2023/06/06 02:01:55;;;;;;;6.17;1.73;;;;;;;20.14;100.00;101676.50;2080447;28;20431;-59
2023/06/06 02:02:55;;;;;;;5.10;2.13;;;;;;;20.10;100.00;101673.06;2087987;28;20250;-58
2023/06/06 02:03:56;;;;;;;7.63;2.03;;;;;;;20.11;100.00;101671.81;2081779;28;20278;-58
2023/06/06 02:04:56;;;;;;;7.33;2.30;;;;;;;20.05;100.00;101661.66;2079612;28;20213;-59
2023/06/06 02:05:57;;;;;;;4.83;2.10;;;;;;;20.18;100.00;101681.97;2085987;28;20190;-59
2023/06/06 02:06:57;;;;;;;4.77;1.83;;;;;;;20.16;100.00;101679.63;2088365;28;20196;-58
2023/06/06 02:07:59;;;;;;;3.30;1.60;;;;;;;20.10;100.00;101678.72;2088001;28;20173;-59
2023/06/06 02:08:59;;;;;;;5.00;2.00;;;;;;;20.00;100.00;101679.94;2088164;28;20628;-58
2023/06/06 02:10:00;;;;;;;3.90;1.87;;;;;;;19.07;100.00;101546.00;2088740;28;20419;-58
2023/06/06 02:11:00;;;;;;;4.90;1.83;;;;;;;19.96;100.00;101675.75;2088198;28;20734;-57
2023/06/06 02:12:01;;;;;;;3.43;1.60;;;;;;;19.93;100.00;101680.28;2081382;28;20196;-58
2023/06/06 02:13:01;;;;;;;4.50;2.13;;;;;;;19.94;100.00;101679.03;2085916;28;20223;-58
2023/06/06 02:14:02;;;;;;;6.70;2.03;;;;;;;19.83;100.00;101658.25;2089126;28;20200;-59
2023/06/06 02:15:04;;;;;;;5.47;2.07;;;;;;;19.92;100.00;101700.44;2089035;28;20272;-58
2023/06/06 02:16:05;;;;;;;3.87;1.73;;;;;;;19.88;100.00;101680.13;2089770;28;20177;-58
2023/06/06 02:17:06;;;;;;;6.07;1.97;;;;;;;19.72;100.00;101677.66;2089585;28;20430;-58
2023/06/06 02:18:06;;;;;;;6.97;1.90;;;;;;;19.79;100.00;101686.53;2088811;28;20716;-58
2023/06/06 02:19:07;;;;;;;3.60;1.70;;;;;;;19.77;100.00;101680.63;2081813;28;20980;-59
2023/06/06 02:20:09;;;;;;;5.33;1.60;;;;;;;19.72;100.00;101683.28;2088739;28;20200;-58
2023/06/06 02:21:09;;;;;;;4.70;1.90;;;;;;;19.72;100.00;101683.28;2090111;28;20181;-57
2023/06/06 02:22:10;;;;;;;3.93;1.77;;;;;;;19.72;100.00;101677.66;2089734;28;20452;-58
2023/06/06 02:23:10;;;;;;;3.37;2.10;;;;;;;19.75;100.00;101697.16;2085637;28;20197;-59
2023/06/06 02:24:11;;;;;;;4.67;1.77;;;;;;;19.71;100.00;101690.91;2084220;28;20410;-58
2023/06/06 02:25:12;;;;;;;4.10;1.93;;;;;;;19.33;100.00;101648.44;2089385;28;20184;-58
2023/06/06 02:26:12;;;;;;;5.93;1.57;;;;;;;19.60;100.00;101687.78;2089021;28;20183;-59
2023/06/06 02:27:15;;;;;;;4.67;1.90;;;;;;;19.27;100.00;101633.47;2081945;28;20564;-59
2023/06/06 02:28:15;;;;;;;5.00;2.00;;;;;;;19.59;100.00;101682.66;2089022;28;20199;-58
2023/06/06 02:29:15;;;;;;;3.37;1.77;;;;;;;19.64;100.00;101685.63;2089753;28;20442;-58
2023/06/06 02:30:16;;;;;;;6.53;1.80;;;;;;;19.57;100.00;101680.31;2089671;28;20591;-58
2023/06/06 02:31:16;;;;;;;4.30;1.73;;;;;;;19.66;100.00;101693.59;2085300;28;20200;-58
2023/06/06 02:32:17;;;;;;;4.57;1.83;;;;;;;19.65;100.00;101684.34;2084465;28;20286;-58
2023/06/06 02:33:19;;;;;;;3.67;1.90;;;;;;;19.73;100.00;101691.25;2089637;28;20188;-58
2023/06/06 02:34:21;;;;;;;4.93;1.90;;;;;;;19.69;100.00;101690.63;2089395;28;20723;-58
2023/06/06 02:35:22;;;;;;;7.53;1.97;;;;;;;19.73;100.00;101685.63;2088977;28;20536;-59
2023/06/06 02:36:22;;;;;;;3.00;1.70;;;;;;;19.39;100.00;101640.19;2081609;28;20944;-58
2023/06/06 02:37:23;;;;;;;5.07;1.80;;;;;;;19.69;100.00;101699.06;2088722;28;20199;-58
2023/06/06 02:38:23;;;;;;;5.00;1.43;;;;;;;19.68;100.00;101697.50;2088975;28;20278;-58
2023/06/06 02:39:24;;;;;;;4.83;1.70;;;;;;;19.70;100.00;101694.22;2088755;28;20199;-58
2023/06/06 02:40:25;;;;;;;6.23;1.80;;;;;;;19.70;100.00;101682.97;2088709;28;20195;-58
2023/06/06 02:41:26;;;;;;;3.07;1.53;;;;;;;19.65;100.00;101692.03;2089710;28;20251;-58
2023/06/06 02:43:45;;;;;;;3.90;1.73;;;;;;;19.60;100.00;101699.03;2086326;28;20447;-59
2023/06/06 02:44:45;;;;;;;4.20;1.87;;;;;;;19.63;100.00;101694.50;2081249;28;20447;-59
2023/06/06 02:45:46;;;;;;;3.30;1.70;;;;;;;19.69;100.00;101698.25;2081956;28;20658;-59
2023/06/06 02:46:47;;;;;;;4.40;1.87;;;;;;;19.68;100.00;101693.88;2089723;28;20215;-59
2023/06/06 02:47:47;;;;;;;2.50;1.50;;;;;;;19.67;100.00;101700.78;2081829;28;20193;-59
2023/06/06 02:48:48;;;;;;;5.40;1.60;;;;;;;19.60;100.00;101696.22;2087398;28;20593;-58
2023/06/06 02:49:49;;;;;;;4.67;1.80;;;;;;;19.56;100.00;101698.44;2089781;28;20207;-58
2023/06/06 02:50:49;;;;;;;5.30;1.90;;;;;;;19.57;100.00;101702.03;2089113;28;20685;-58
2023/06/06 02:51:50;;;;;;;5.07;1.63;;;;;;;19.60;100.00;101704.66;2089817;28;20216;-58
2023/06/06 02:52:51;;;;;;;4.60;1.80;;;;;;;19.58;100.00;101701.56;2089155;28;20253;-58
2023/06/06 02:53:52;;;;;;;3.60;1.60;;;;;;;19.55;100.00;101705.28;2089658;28;20179;-58
2023/06/06 02:54:52;;;;;;;3.67;1.53;;;;;;;19.49;100.00;101707.16;2089004;28;20418;-59
2023/06/06 02:55:52;;;;;;;5.30;1.60;;;;;;;19.30;100.00;101693.56;2089732;28;20242;-59
2023/06/06 02:56:53;;;;;;;2.93;1.30;;;;;;;19.42;100.00;101715.13;2081958;28;20280;-59
2023/06/06 02:57:53;;;;;;;4.07;1.30;;;;;;;19.47;100.00;101708.88;2082015;28;20243;-58
2023/06/06 02:58:54;;;;;;;4.23;1.60;;;;;;;18.75;100.00;101599.97;2085580;28;20645;-58
2023/06/06 02:59:55;;;;;;;5.33;1.77;;;;;;;19.49;100.00;101709.97;2085868;28;20199;-58
2023/06/06 03:00:56;;;;;;;3.87;1.30;;;;;;;19.52;100.00;101708.25;2083547;28;20204;-59
2023/06/06 03:01:57;;;;;;;4.47;1.40;;;;;;;19.44;100.00;101690.16;2089335;28;20219;-58
2023/06/06 03:02:57;;;;;;;5.77;1.60;;;;;;;19.47;100.00;101704.06;2089253;28;20425;-58
2023/06/06 03:03:58;;;;;;;3.97;1.43;;;;;;;19.48;100.00;101714.03;2089795;28;20314;-57
2023/06/06 03:04:58;;;;;;;2.97;1.47;;;;;;;18.78;100.00;101620.72;2081404;28;20193;-58
2023/06/06 03:06:00;;;;;;;3.73;1.67;;;;;;;19.44;100.00;101719.03;2087628;28;20203;-58
2023/06/06 03:07:01;;;;;;;3.13;1.60;;;;;;;19.42;100.00;101718.72;2089184;28;20697;-58
2023/06/06 03:08:01;;;;;;;7.20;1.40;;;;;;;19.37;100.00;101719.34;2088841;28;20487;-58
2023/06/06 03:09:04;;;;;;;2.50;1.37;;;;;;;19.30;100.00;101716.81;2089164;28;20196;-58
2023/06/06 03:10:04;;;;;;;4.57;1.40;;;;;;;19.33;100.00;101720.72;2089530;28;20192;-58
2023/06/06 03:11:05;;;;;;;5.93;1.80;;;;;;;19.45;100.00;101729.03;2088408;28;20426;-58
2023/06/06 03:12:06;;;;;;;6.53;1.67;;;;;;;19.04;100.00;101653.69;2088068;28;20188;-58
2023/06/06 03:13:06;;;;;;;6.07;1.43;;;;;;;19.50;100.00;101725.59;2089877;28;20189;-58
2023/06/06 03:14:08;;;;;;;6.30;1.47;;;;;;;18.96;100.00;101644.00;2089282;28;20467;-59
2023/06/06 03:15:09;;;;;;;4.27;1.40;;;;;;;19.44;100.00;101730.28;2088514;28;20697;-58
2023/06/06 03:16:13;;;;;;;3.90;1.50;;;;;;;19.43;100.00;101731.53;2084313;28;20921;-58
2023/06/06 03:17:14;;;;;;;5.60;1.53;;;;;;;19.45;100.00;101728.25;2085002;28;20450;-58
2023/06/06 03:18:20;;;;;;;4.27;1.50;;;;;;;19.31;100.00;101718.41;2085156;28;20555;-58
2023/06/06 03:19:20;;;;;;;2.47;1.27;;;;;;;19.47;100.00;101729.34;2083955;28;20208;-58
2023/06/06 03:20:20;;;;;;;6.13;1.33;;;;;;;19.40;100.00;101735.25;2088474;28;20437;-58
2023/06/06 03:21:21;;;;;;;4.50;1.60;;;;;;;19.44;100.00;101740.75;2080445;28;20353;-58
2023/06/06 03:22:21;;;;;;;13.57;2.40;;;;;;;19.30;100.00;101708.38;2088840;28;20172;-59
2023/06/06 03:23:22;;;;;;;7.87;2.10;;;;;;;19.51;100.00;101740.44;2089254;28;20200;-58
2023/06/06 03:24:22;;;;;;;5.73;1.50;;;;;;;19.48;100.00;101739.34;2082234;28;20570;-58
2023/06/06 03:25:26;;;;;;;5.87;1.60;;;;;;;19.46;100.00;101744.66;2086242;28;20644;-58
2023/06/06 03:26:26;;;;;;;3.10;1.60;;;;;;;19.52;100.00;101739.19;2088861;28;20246;-58
2023/06/06 03:27:27;;;;;;;4.60;1.60;;;;;;;19.52;100.00;101739.97;2089160;28;20450;-58
2023/06/06 03:28:31;;;;;;;5.37;1.70;;;;;;;19.50;100.00;101739.66;2088574;28;20176;-58
2023/06/06 03:29:32;;;;;;;2.43;1.40;;;;;;;19.54;100.00;101743.09;2089256;28;20589;-58
2023/06/06 03:30:32;;;;;;;4.37;1.60;;;;;;;19.51;100.00;101738.44;2089101;28;20517;-59
2023/06/06 03:31:33;;;;;;;3.67;1.40;;;;;;;19.47;100.00;101737.78;2089681;28;20177;-58
2023/06/06 03:32:33;;;;;;;3.60;1.40;;;;;;;19.45;100.00;101756.38;2081356;28;20223;-58
2023/06/06 03:33:35;;;;;;;4.07;1.50;;;;;;;19.51;100.00;101737.63;2087618;28;20180;-58
2023/06/06 03:34:35;;;;;;;7.27;1.50;;;;;;;19.55;100.00;101738.28;2083492;28;20278;-58
2023/06/06 03:35:36;;;;;;;3.93;1.53;;;;;;;18.91;100.00;101632.59;2084886;28;20512;-59
2023/06/06 03:36:37;;;;;;;4.40;1.80;;;;;;;19.66;100.00;101744.97;2089151;28;20231;-58
2023/06/06 03:37:37;;;;;;;4.17;1.60;;;;;;;19.70;100.00;101744.84;2089098;28;20183;-58
2023/06/06 03:38:37;;;;;;;6.50;1.60;;;;;;;19.73;100.00;101753.13;2088297;28;20199;-59
2023/06/06 03:39:39;;;;;;;3.33;1.50;;;;;;;19.74;100.00;101748.25;2089620;28;20331;-58
2023/06/06 03:40:40;;;;;;;5.60;1.87;;;;;;;19.79;100.00;101744.81;2089331;28;20200;-58
2023/06/06 03:41:40;;;;;;;7.57;1.60;;;;;;;19.83;100.00;101749.06;2089089;28;21064;-59
2023/06/06 03:42:40;;;;;;;6.67;1.63;;;;;;;19.81;100.00;101751.53;2089218;28;20638;-58
2023/06/06 03:43:45;;;;;;;3.43;1.27;;;;;;;19.18;100.00;101663.56;2084256;28;20354;-58
2023/06/06 03:44:45;;;;;;;2.33;1.20;;;;;;;19.69;100.00;101749.69;2092106;28;20195;-58
2023/06/06 03:45:45;;;;;;;3.10;1.40;;;;;;;19.66;100.00;101758.28;2096451;28;20483;-58
2023/06/06 03:46:46;;;;;;;2.00;1.20;;;;;;;19.72;100.00;101748.75;2082859;28;20181;-59
2023/06/06 03:47:46;;;;;;;5.83;1.73;;;;;;;19.60;100.00;101735.59;2088857;28;20179;-59
2023/06/06 03:48:47;;;;;;;3.73;1.40;;;;;;;19.42;100.00;101701.06;2088891;28;20172;-59
2023/06/06 03:49:47;;;;;;;6.63;1.70;;;;;;;19.71;100.00;101747.16;2089167;28;20198;-58
2023/06/06 03:50:48;;;;;;;3.83;1.70;;;;;;;19.76;100.00;101745.78;2088778;28;20278;-59
2023/06/06 03:51:48;;;;;;;2.83;1.50;;;;;;;19.72;100.00;101756.41;2089216;28;20230;-59
2023/06/06 03:52:49;;;;;;;4.13;1.57;;;;;;;19.78;100.00;101748.88;2088753;28;20617;-56
2023/06/06 03:53:49;;;;;;;3.73;1.67;;;;;;;20.08;100.00;101759.22;2088038;28;20269;-58
2023/06/06 03:54:50;;;;;;;2.63;1.57;;;;;;;20.34;100.00;101768.88;2088862;28;20237;-58
2023/06/06 03:55:50;;;;;;;2.83;1.60;;;;;;;20.29;100.00;101753.41;2090440;28;20192;-58
2023/06/06 03:56:50;;;;;;;4.90;1.40;;;;;;;20.31;100.00;101759.34;2089471;28;20188;-58
2023/06/06 03:57:52;;;;;;;3.10;1.13;;;;;;;20.33;100.00;101764.50;2089410;28;20214;-58
2023/06/06 03:58:53;;;;;;;3.07;1.63;;;;;;;20.41;100.00;101763.69;2088345;28;20743;-57
2023/06/06 03:59:53;;;;;;;4.37;1.20;;;;;;;20.50;100.00;101760.06;2083411;28;20840;-59
2023/06/06 04:00:58;;;;;;;4.30;1.40;;;;;;;20.26;100.00;101731.84;2086275;28;20179;-56
2023/06/06 04:01:58;;;;;;;5.03;1.43;;;;;;;20.52;100.00;101763.97;2089215;28;20200;-57
2023/06/06 04:02:58;;;;;;;3.97;1.70;;;;;;;20.58;100.00;101770.53;2089857;28;20485;-57
2023/06/06 04:03:59;;;;;;;5.60;1.37;;;;;;;20.56;100.00;101772.25;2090046;28;20672;-56
2023/06/06 04:05:01;;;;;;;4.00;1.40;;;;;;;20.65;100.00;101775.06;2089833;28;20180;-57
2023/06/06 04:06:04;;;;;;;4.53;1.23;;;;;;;20.58;100.00;101770.53;2081694;28;20185;-60
2023/06/06 04:07:05;;;;;;;3.40;1.10;;;;;;;20.50;100.00;101760.88;2088638;28;20514;-57
2023/06/06 04:08:07;;;;;;;10.40;1.40;;;;;;;20.57;100.00;101771.78;2089846;28;20437;-57
2023/06/06 04:09:10;;;;;;;2.67;1.13;;;;;;;20.53;100.00;101773.22;2088919;28;20225;-57
2023/06/06 04:10:10;;;;;;;3.13;1.60;;;;;;;20.59;100.00;101774.94;2089140;28;20993;-57
2023/06/06 04:11:11;;;;;;;6.23;1.90;;;;;;;20.59;100.00;101777.75;2088617;28;20933;-56
2023/06/06 04:12:11;;;;;;;4.27;1.30;;;;;;;20.75;100.00;101776.59;2089351;28;20176;-56
2023/06/06 04:13:12;;;;;;;4.90;1.40;;;;;;;20.84;100.00;101780.19;2090187;28;20180;-56
2023/06/06 04:14:13;;;;;;;3.60;1.60;;;;;;;20.90;100.00;101769.84;2089375;28;20192;-57
2023/06/06 04:15:13;;;;;;;3.97;1.40;;;;;;;21.01;100.00;101780.59;2089583;28;20192;-56
2023/06/06 04:16:13;;;;;;;5.17;1.10;;;;;;;21.15;100.00;101780.69;2089827;28;20196;-57
2023/06/06 04:17:14;;;;;;;3.83;1.27;;;;;;;20.93;100.00;101728.66;2089645;28;20179;-57
2023/06/06 04:18:15;;;;;;;2.43;1.00;;;;;;;21.10;100.00;101744.69;2089538;28;20192;-57
2023/06/06 04:19:16;;;;;;;7.17;1.57;;;;;;;21.47;100.00;101782.69;2088984;28;20285;-60
2023/06/06 04:20:16;;;;;;;6.00;1.20;;;;;;;21.67;100.00;101790.53;2089742;28;20476;-59
2023/06/06 04:21:17;;;;;;;6.07;1.43;;;;;;;21.68;100.00;101781.63;2090106;28;20182;-60
2023/06/06 04:22:18;;;;;;;3.67;1.20;;;;;;;21.65;100.00;101778.97;2089919;28;20566;-59
2023/06/06 04:23:20;;;;;;;4.50;1.50;;;;;;;20.96;100.00;101683.41;2089951;28;20185;-59
2023/06/06 04:24:21;;;;;;;3.20;1.17;;;;;;;21.57;100.00;101781.38;2089970;28;20965;-57
2023/06/06 04:25:21;;;;;;;6.87;1.20;;;;;;;21.60;100.00;101769.09;2089825;28;20854;-57
2023/06/06 04:26:26;;;;;;;4.87;1.20;;;;;;;21.70;100.00;101773.47;2089871;28;20223;-55
2023/06/06 04:27:28;;;;;;;5.97;1.53;;;;;;;21.74;100.00;101776.88;2089576;28;20716;-59
2023/06/06 04:28:31;;;;;;;2.23;1.00;;;;;;;21.81;100.00;101782.16;2087170;28;20427;-60
2023/06/06 04:29:35;;;;;;;5.47;1.20;;;;;;;21.64;100.00;101775.34;2088175;28;20423;-60
2023/06/06 04:30:36;;;;;;;9.37;1.17;;;;;;;21.65;100.00;101776.91;2088811;28;20418;-60
2023/06/06 04:31:40;;;;;;;3.23;1.30;;;;;;;21.72;100.00;101784.25;2088504;28;20431;-59
2023/06/06 04:32:41;;;;;;;1.73;0.90;;;;;;;21.91;100.00;101789.28;2080719;28;20455;-60
2023/06/06 04:33:42;;;;;;;4.70;1.10;;;;;;;22.04;100.00;101787.00;2080175;28;20200;-59
2023/06/06 04:34:45;;;;;;;3.23;1.17;;;;;;;21.96;100.00;101751.91;2085088;28;20290;-59
2023/06/06 04:35:46;;;;;;;2.87;1.30;;;;;;;22.21;100.00;101788.06;2085497;28;20268;-59
2023/06/06 04:36:47;;;;;;;2.63;1.30;;;;;;;22.10;100.00;101775.81;2086252;28;20204;-59
2023/06/06 04:37:50;;;;;;;3.17;1.20;;;;;;;21.87;100.00;101774.59;2086699;28;20603;-60
2023/06/06 04:38:51;;;;;;;1.57;1.10;;;;;;;21.23;100.00;101730.38;2087481;28;20236;-59
2023/06/06 04:39:52;;;;;;;2.83;1.10;;;;;;;21.51;100.00;101779.69;2090349;28;20473;-59
2023/06/06 04:40:53;;;;;;;7.03;1.30;;;;;;;21.45;100.00;101784.44;2083261;28;20484;-59
2023/06/06 04:41:56;;;;;;;4.60;1.20;;;;;;;21.45;100.00;101782.38;2062491;28;20462;-59
2023/06/06 04:42:58;;;;;;;3.13;1.37;;;;;;;21.41;100.00;101778.19;2084755;28;20704;-59
2023/06/06 04:43:59;;;;;;;1.90;0.90;;;;;;;21.47;100.00;101781.91;2085639;28;20807;-59